Dauntless Aviation
Airports Europe France
LFIY

Saint Jean d'Angely

FRANCE

Airport Info
Suggest Updated Information for this Airport

Location

Latitude / Longitude: 45°57'59"N / 0°31'31"W
  45°57.984'N / 0°31.518'W
  45.9664 / -0.5253

Runway Information

Runway 10 /28

Dimensions: 2789 x 164 ft.
Surface: U
 
Runway 10
Runway 28
Latitude: 45.966636 45.965728
Longitude: -0.528086 -0.518369
Elevation: 243 ft. 243 ft.
Runway true heading: 95.7 275.7
 

Instrument Procedures

IAPs (Instrument Approach Procedures)

  Visual Approch Chart
Satellite photo at:
Airport distance calculator
From:
Weather Reports

METAR

LFBG
20.0nm SE
LFBG 291930Z AUTO 32004KT CAVOK 11/05 Q1018
LFBH
27.2nm W
LFBH 291930Z AUTO 25007KT 9999 FEW046 OVC064 11/07 Q1017 NOSIG
LFBU
34.5nm E
LFBU 291930Z AUTO 33006KT CAVOK 09/04 Q1017 NOSIG

TAF

LFBG
20.0nm SE
TAF LFBG 291700Z 2918/3018 25010KT CAVOK BECMG 3002/3004 4000 RA SCT008 BKN015 PROB40 TEMPO 3002/3008 SCT030CB BECMG 3008/3010 33020G30KT BECMG 3010/3012 9999 NSW BKN025 BECMG 3014/3016 32012KT PROB40 TEMPO 3014/3018 6000 SHRA BKN030TCU
LFBH
27.2nm W
TAF LFBH 291700Z 2918/3018 25010KT 9999 BKN030 BECMG 3000/3002 24015G25KT -RA PROB40 3002/3014 24020G35KT SHRA BKN015TCU PROB30 3008/3014 30030G45KT 3000 TSRA BKN015CB
LFBU
34.5nm E
TAF LFBU 291700Z 2918/3018 30006KT CAVOK TEMPO 3000/3004 -RA BECMG 3004/3006 20015KT -RA PROB40 3006/3010 20020G30KT 3000 RA BKN014 SCT020CB BECMG 3010/3012 32015KT PROB40 3012/3018 30020G35KT SHRA BKN020TCU PROB30 3012/3018 BKN015CB
Safelog

 

Dauntless Aviation

© 2007-2016 Dauntless Aviation, all rights reserved
Information provided via PilotNav comes from a variety of official and unofficial data sources. As errors are possible, do not use PilotNav for primary flight planning purposes. Verify any information that you receive via PilotNav with current and canonical charts and other official documents. The material in this database is subject to database copyrights held by Dauntless Aviation and may not be copied without the express permission of Dauntless Aviation - licenses for use of part of all of this data are available for purchase; enquire via the Dauntless Aviation helpdesk. A number of mechanisms and markers exist in the database to protect against and identify infringement / copyright. Automated queries against this website are stictly prohibited, and all activity is logged and analyzed.